sensor_id;sensor_type;location;lat;lon;timestamp;P1;durP1;ratioP1;P2;durP2;ratioP2
68989;SDS011;56046;47.270;11.368;2023-03-01T00:00:35;22.40;;;10.23;;
68989;SDS011;56046;47.270;11.368;2023-03-01T00:03:00;25.30;;;10.70;;
68989;SDS011;56046;47.270;11.368;2023-03-01T00:05:26;22.47;;;11.60;;
68989;SDS011;56046;47.270;11.368;2023-03-01T00:07:54;24.13;;;10.67;;
68989;SDS011;56046;47.270;11.368;2023-03-01T00:10:19;22.83;;;10.33;;
68989;SDS011;56046;47.270;11.368;2023-03-01T00:12:45;20.35;;;10.48;;
68989;SDS011;56046;47.270;11.368;2023-03-01T00:15:10;21.98;;;10.20;;
68989;SDS011;56046;47.270;11.368;2023-03-01T00:17:36;21.83;;;10.57;;
68989;SDS011;56046;47.270;11.368;2023-03-01T00:20:01;21.63;;;10.40;;
68989;SDS011;56046;47.270;11.368;2023-03-01T00:22:27;20.45;;;10.00;;
68989;SDS011;56046;47.270;11.368;2023-03-01T00:24:53;23.17;;;10.97;;
68989;SDS011;56046;47.270;11.368;2023-03-01T00:27:18;22.15;;;10.18;;
68989;SDS011;56046;47.270;11.368;2023-03-01T00:29:44;22.98;;;11.10;;
68989;SDS011;56046;47.270;11.368;2023-03-01T00:32:09;24.70;;;10.63;;
68989;SDS011;56046;47.270;11.368;2023-03-01T00:34:34;25.57;;;10.87;;
68989;SDS011;56046;47.270;11.368;2023-03-01T00:37:00;21.97;;;10.93;;
68989;SDS011;56046;47.270;11.368;2023-03-01T00:39:30;21.85;;;10.50;;
68989;SDS011;56046;47.270;11.368;2023-03-01T00:41:55;26.40;;;11.40;;
68989;SDS011;56046;47.270;11.368;2023-03-01T00:44:21;24.75;;;10.95;;
68989;SDS011;56046;47.270;11.368;2023-03-01T00:46:46;24.43;;;11.23;;
68989;SDS011;56046;47.270;11.368;2023-03-01T00:49:12;24.93;;;10.83;;
68989;SDS011;56046;47.270;11.368;2023-03-01T00:51:37;24.58;;;11.40;;
68989;SDS011;56046;47.270;11.368;2023-03-01T00:54:04;24.40;;;11.63;;
68989;SDS011;56046;47.270;11.368;2023-03-01T00:56:30;23.57;;;10.50;;
68989;SDS011;56046;47.270;11.368;2023-03-01T00:58:55;23.05;;;10.15;;
68989;SDS011;56046;47.270;11.368;2023-03-01T01:01:22;24.70;;;10.90;;
68989;SDS011;56046;47.270;11.368;2023-03-01T01:06:14;24.07;;;10.30;;
68989;SDS011;56046;47.270;11.368;2023-03-01T01:08:39;20.38;;;9.68;;
68989;SDS011;56046;47.270;11.368;2023-03-01T01:11:04;23.10;;;11.37;;
68989;SDS011;56046;47.270;11.368;2023-03-01T01:13:29;22.37;;;10.57;;
68989;SDS011;56046;47.270;11.368;2023-03-01T01:15:59;21.93;;;10.53;;
68989;SDS011;56046;47.270;11.368;2023-03-01T01:18:25;21.73;;;11.15;;
68989;SDS011;56046;47.270;11.368;2023-03-01T01:20:50;23.73;;;11.03;;
68989;SDS011;56046;47.270;11.368;2023-03-01T01:23:15;22.43;;;10.87;;
68989;SDS011;56046;47.270;11.368;2023-03-01T01:25:41;20.53;;;10.23;;
68989;SDS011;56046;47.270;11.368;2023-03-01T01:28:06;23.77;;;11.17;;
68989;SDS011;56046;47.270;11.368;2023-03-01T01:30:31;21.10;;;10.73;;
68989;SDS011;56046;47.270;11.368;2023-03-01T01:32:56;22.27;;;10.80;;
68989;SDS011;56046;47.270;11.368;2023-03-01T01:35:22;24.70;;;11.30;;
68989;SDS011;56046;47.270;11.368;2023-03-01T01:37:47;23.27;;;10.93;;
68989;SDS011;56046;47.270;11.368;2023-03-01T01:40:12;21.70;;;10.53;;
68989;SDS011;56046;47.270;11.368;2023-03-01T01:42:38;23.67;;;10.23;;
68989;SDS011;56046;47.270;11.368;2023-03-01T01:47:47;22.05;;;11.13;;
68989;SDS011;56046;47.270;11.368;2023-03-01T01:50:14;23.42;;;10.60;;
68989;SDS011;56046;47.270;11.368;2023-03-01T01:52:42;27.02;;;11.70;;
68989;SDS011;56046;47.270;11.368;2023-03-01T01:55:08;25.27;;;10.93;;
68989;SDS011;56046;47.270;11.368;2023-03-01T01:57:37;23.80;;;10.65;;
68989;SDS011;56046;47.270;11.368;2023-03-01T02:00:07;24.07;;;11.40;;
68989;SDS011;56046;47.270;11.368;2023-03-01T02:02:33;22.02;;;10.95;;
68989;SDS011;56046;47.270;11.368;2023-03-01T02:05:02;22.87;;;11.00;;
68989;SDS011;56046;47.270;11.368;2023-03-01T02:07:28;23.98;;;11.20;;
68989;SDS011;56046;47.270;11.368;2023-03-01T02:09:54;24.38;;;11.63;;
68989;SDS011;56046;47.270;11.368;2023-03-01T02:12:21;20.97;;;10.70;;
68989;SDS011;56046;47.270;11.368;2023-03-01T02:14:48;23.67;;;11.20;;
68989;SDS011;56046;47.270;11.368;2023-03-01T02:17:14;20.60;;;11.03;;
68989;SDS011;56046;47.270;11.368;2023-03-01T02:19:50;22.85;;;10.85;;
68989;SDS011;56046;47.270;11.368;2023-03-01T02:22:30;24.80;;;11.15;;
68989;SDS011;56046;47.270;11.368;2023-03-01T02:27:56;25.13;;;11.93;;
68989;SDS011;56046;47.270;11.368;2023-03-01T02:30:19;28.58;;;11.80;;
68989;SDS011;56046;47.270;11.368;2023-03-01T02:32:45;26.52;;;11.20;;
68989;SDS011;56046;47.270;11.368;2023-03-01T02:35:12;22.03;;;11.30;;
68989;SDS011;56046;47.270;11.368;2023-03-01T02:37:38;22.10;;;11.35;;
68989;SDS011;56046;47.270;11.368;2023-03-01T02:40:06;23.73;;;11.43;;
68989;SDS011;56046;47.270;11.368;2023-03-01T02:42:37;23.35;;;11.98;;
68989;SDS011;56046;47.270;11.368;2023-03-01T02:45:05;24.23;;;11.40;;
68989;SDS011;56046;47.270;11.368;2023-03-01T02:47:30;22.85;;;10.70;;
68989;SDS011;56046;47.270;11.368;2023-03-01T02:49:56;23.23;;;10.63;;
68989;SDS011;56046;47.270;11.368;2023-03-01T02:52:34;24.97;;;12.27;;
68989;SDS011;56046;47.270;11.368;2023-03-01T02:55:03;23.97;;;10.80;;
68989;SDS011;56046;47.270;11.368;2023-03-01T02:57:30;23.63;;;10.85;;
68989;SDS011;56046;47.270;11.368;2023-03-01T02:59:56;26.05;;;11.63;;
68989;SDS011;56046;47.270;11.368;2023-03-01T03:02:24;23.30;;;11.02;;
68989;SDS011;56046;47.270;11.368;2023-03-01T03:05:18;24.10;;;11.98;;
68989;SDS011;56046;47.270;11.368;2023-03-01T03:07:44;23.80;;;11.83;;
68989;SDS011;56046;47.270;11.368;2023-03-01T03:10:11;28.85;;;11.73;;
68989;SDS011;56046;47.270;11.368;2023-03-01T03:12:37;24.38;;;11.27;;
68989;SDS011;56046;47.270;11.368;2023-03-01T03:15:02;24.73;;;11.73;;
68989;SDS011;56046;47.270;11.368;2023-03-01T03:17:33;25.65;;;11.65;;
68989;SDS011;56046;47.270;11.368;2023-03-01T03:19:59;21.97;;;10.33;;
68989;SDS011;56046;47.270;11.368;2023-03-01T03:22:24;23.57;;;10.77;;
68989;SDS011;56046;47.270;11.368;2023-03-01T03:24:49;23.00;;;10.53;;
68989;SDS011;56046;47.270;11.368;2023-03-01T03:27:14;20.00;;;9.77;;
68989;SDS011;56046;47.270;11.368;2023-03-01T03:29:40;20.80;;;9.40;;
68989;SDS011;56046;47.270;11.368;2023-03-01T03:32:05;19.00;;;8.93;;
68989;SDS011;56046;47.270;11.368;2023-03-01T03:34:30;19.17;;;9.50;;
68989;SDS011;56046;47.270;11.368;2023-03-01T03:36:55;18.05;;;8.75;;
68989;SDS011;56046;47.270;11.368;2023-03-01T03:39:27;22.43;;;9.60;;
68989;SDS011;56046;47.270;11.368;2023-03-01T03:41:53;19.25;;;8.07;;
68989;SDS011;56046;47.270;11.368;2023-03-01T03:44:18;19.00;;;9.87;;
68989;SDS011;56046;47.270;11.368;2023-03-01T03:46:44;18.90;;;8.60;;
68989;SDS011;56046;47.270;11.368;2023-03-01T03:49:09;20.23;;;9.57;;
68989;SDS011;56046;47.270;11.368;2023-03-01T03:51:34;19.17;;;8.30;;
68989;SDS011;56046;47.270;11.368;2023-03-01T03:54:00;18.67;;;8.67;;
68989;SDS011;56046;47.270;11.368;2023-03-01T03:56:25;19.87;;;9.10;;
68989;SDS011;56046;47.270;11.368;2023-03-01T03:58:51;17.27;;;8.83;;
68989;SDS011;56046;47.270;11.368;2023-03-01T04:01:16;21.35;;;9.20;;
68989;SDS011;56046;47.270;11.368;2023-03-01T04:03:41;17.25;;;9.02;;
68989;SDS011;56046;47.270;11.368;2023-03-01T04:06:11;19.45;;;9.00;;
68989;SDS011;56046;47.270;11.368;2023-03-01T04:08:36;19.50;;;9.37;;
68989;SDS011;56046;47.270;11.368;2023-03-01T04:11:03;19.87;;;9.03;;
68989;SDS011;56046;47.270;11.368;2023-03-01T04:13:48;21.33;;;8.63;;
68989;SDS011;56046;47.270;11.368;2023-03-01T04:16:14;20.33;;;9.32;;
68989;SDS011;56046;47.270;11.368;2023-03-01T04:18:39;18.83;;;9.55;;
68989;SDS011;56046;47.270;11.368;2023-03-01T04:21:05;18.80;;;8.70;;
68989;SDS011;56046;47.270;11.368;2023-03-01T04:23:30;19.13;;;9.27;;
68989;SDS011;56046;47.270;11.368;2023-03-01T04:25:56;21.17;;;9.30;;
68989;SDS011;56046;47.270;11.368;2023-03-01T04:30:47;19.70;;;9.13;;
68989;SDS011;56046;47.270;11.368;2023-03-01T04:33:12;17.67;;;9.30;;
68989;SDS011;56046;47.270;11.368;2023-03-01T04:35:38;18.93;;;9.47;;
68989;SDS011;56046;47.270;11.368;2023-03-01T04:38:04;20.98;;;9.50;;
68989;SDS011;56046;47.270;11.368;2023-03-01T04:40:30;19.60;;;9.00;;
68989;SDS011;56046;47.270;11.368;2023-03-01T04:42:55;23.00;;;10.38;;
68989;SDS011;56046;47.270;11.368;2023-03-01T04:45:20;19.63;;;9.53;;
68989;SDS011;56046;47.270;11.368;2023-03-01T04:47:45;17.77;;;9.00;;
68989;SDS011;56046;47.270;11.368;2023-03-01T04:50:12;19.17;;;9.73;;
68989;SDS011;56046;47.270;11.368;2023-03-01T04:52:38;19.65;;;9.70;;
68989;SDS011;56046;47.270;11.368;2023-03-01T04:55:03;21.40;;;9.57;;
68989;SDS011;56046;47.270;11.368;2023-03-01T04:57:29;18.10;;;9.53;;
68989;SDS011;56046;47.270;11.368;2023-03-01T04:59:54;21.73;;;10.40;;
68989;SDS011;56046;47.270;11.368;2023-03-01T05:02:20;24.43;;;9.47;;
68989;SDS011;56046;47.270;11.368;2023-03-01T05:04:45;19.57;;;9.73;;
68989;SDS011;56046;47.270;11.368;2023-03-01T05:07:10;19.47;;;9.73;;
68989;SDS011;56046;47.270;11.368;2023-03-01T05:09:38;20.10;;;9.70;;
68989;SDS011;56046;47.270;11.368;2023-03-01T05:12:03;19.70;;;9.77;;
68989;SDS011;56046;47.270;11.368;2023-03-01T05:14:31;21.20;;;10.00;;
68989;SDS011;56046;47.270;11.368;2023-03-01T05:16:56;20.13;;;9.70;;
68989;SDS011;56046;47.270;11.368;2023-03-01T05:19:29;23.83;;;10.03;;
68989;SDS011;56046;47.270;11.368;2023-03-01T05:21:55;23.33;;;10.68;;
68989;SDS011;56046;47.270;11.368;2023-03-01T05:24:27;22.60;;;10.02;;
68989;SDS011;56046;47.270;11.368;2023-03-01T05:26:52;20.27;;;9.57;;
68989;SDS011;56046;47.270;11.368;2023-03-01T05:29:18;22.20;;;9.97;;
68989;SDS011;56046;47.270;11.368;2023-03-01T05:31:50;21.25;;;9.98;;
68989;SDS011;56046;47.270;11.368;2023-03-01T05:34:15;19.67;;;8.93;;
68989;SDS011;56046;47.270;11.368;2023-03-01T05:36:40;19.20;;;9.57;;
68989;SDS011;56046;47.270;11.368;2023-03-01T05:39:05;21.37;;;9.87;;
68989;SDS011;56046;47.270;11.368;2023-03-01T05:41:31;18.70;;;8.83;;
68989;SDS011;56046;47.270;11.368;2023-03-01T05:43:56;19.77;;;8.80;;
68989;SDS011;56046;47.270;11.368;2023-03-01T05:46:21;18.07;;;9.30;;
68989;SDS011;56046;47.270;11.368;2023-03-01T05:48:49;18.60;;;9.02;;
68989;SDS011;56046;47.270;11.368;2023-03-01T05:51:14;18.50;;;8.73;;
68989;SDS011;56046;47.270;11.368;2023-03-01T05:53:40;18.80;;;9.00;;
68989;SDS011;56046;47.270;11.368;2023-03-01T05:56:05;17.73;;;8.97;;
68989;SDS011;56046;47.270;11.368;2023-03-01T05:58:31;19.17;;;9.40;;
68989;SDS011;56046;47.270;11.368;2023-03-01T06:00:56;17.27;;;7.67;;
68989;SDS011;56046;47.270;11.368;2023-03-01T06:03:22;17.77;;;8.10;;
68989;SDS011;56046;47.270;11.368;2023-03-01T06:05:47;19.10;;;9.13;;
68989;SDS011;56046;47.270;11.368;2023-03-01T06:08:12;20.30;;;8.73;;
68989;SDS011;56046;47.270;11.368;2023-03-01T06:10:38;17.83;;;8.80;;
68989;SDS011;56046;47.270;11.368;2023-03-01T06:13:04;19.13;;;8.18;;
68989;SDS011;56046;47.270;11.368;2023-03-01T06:15:29;21.93;;;8.07;;
68989;SDS011;56046;47.270;11.368;2023-03-01T06:17:55;21.43;;;9.07;;
68989;SDS011;56046;47.270;11.368;2023-03-01T06:20:23;19.42;;;8.38;;
68989;SDS011;56046;47.270;11.368;2023-03-01T06:22:48;18.63;;;8.00;;
68989;SDS011;56046;47.270;11.368;2023-03-01T06:25:15;19.20;;;8.40;;
68989;SDS011;56046;47.270;11.368;2023-03-01T06:27:41;16.52;;;7.80;;
68989;SDS011;56046;47.270;11.368;2023-03-01T06:30:11;19.65;;;8.82;;
68989;SDS011;56046;47.270;11.368;2023-03-01T06:32:37;18.33;;;8.57;;
68989;SDS011;56046;47.270;11.368;2023-03-01T06:35:03;20.27;;;8.20;;
68989;SDS011;56046;47.270;11.368;2023-03-01T06:37:28;21.33;;;10.13;;
68989;SDS011;56046;47.270;11.368;2023-03-01T06:39:54;18.77;;;9.37;;
68989;SDS011;56046;47.270;11.368;2023-03-01T06:42:19;15.80;;;7.33;;
68989;SDS011;56046;47.270;11.368;2023-03-01T06:44:44;18.53;;;8.30;;
68989;SDS011;56046;47.270;11.368;2023-03-01T06:47:10;16.88;;;7.00;;
68989;SDS011;56046;47.270;11.368;2023-03-01T06:49:36;20.53;;;9.17;;
68989;SDS011;56046;47.270;11.368;2023-03-01T06:52:01;24.33;;;10.47;;
68989;SDS011;56046;47.270;11.368;2023-03-01T06:54:26;16.93;;;8.10;;
68989;SDS011;56046;47.270;11.368;2023-03-01T06:56:51;19.57;;;8.50;;
68989;SDS011;56046;47.270;11.368;2023-03-01T06:59:18;17.43;;;7.97;;
68989;SDS011;56046;47.270;11.368;2023-03-01T07:01:43;15.65;;;7.40;;
68989;SDS011;56046;47.270;11.368;2023-03-01T07:04:10;17.63;;;8.03;;
68989;SDS011;56046;47.270;11.368;2023-03-01T07:06:35;16.33;;;7.18;;
68989;SDS011;56046;47.270;11.368;2023-03-01T07:09:01;16.93;;;7.00;;
68989;SDS011;56046;47.270;11.368;2023-03-01T07:11:26;13.13;;;6.40;;
68989;SDS011;56046;47.270;11.368;2023-03-01T07:13:51;16.33;;;6.20;;
68989;SDS011;56046;47.270;11.368;2023-03-01T07:16:16;15.97;;;6.13;;
68989;SDS011;56046;47.270;11.368;2023-03-01T07:18:42;14.77;;;6.70;;
68989;SDS011;56046;47.270;11.368;2023-03-01T07:21:08;14.97;;;7.07;;
68989;SDS011;56046;47.270;11.368;2023-03-01T07:23:33;16.38;;;6.18;;
68989;SDS011;56046;47.270;11.368;2023-03-01T07:25:59;13.82;;;5.95;;
68989;SDS011;56046;47.270;11.368;2023-03-01T07:28:25;14.70;;;6.20;;
68989;SDS011;56046;47.270;11.368;2023-03-01T07:30:50;15.35;;;8.05;;
68989;SDS011;56046;47.270;11.368;2023-03-01T07:33:16;18.50;;;7.77;;
68989;SDS011;56046;47.270;11.368;2023-03-01T07:35:41;16.60;;;7.97;;
68989;SDS011;56046;47.270;11.368;2023-03-01T07:38:07;17.70;;;7.47;;
68989;SDS011;56046;47.270;11.368;2023-03-01T07:40:32;11.23;;;5.57;;
68989;SDS011;56046;47.270;11.368;2023-03-01T07:42:58;13.93;;;6.53;;
68989;SDS011;56046;47.270;11.368;2023-03-01T07:45:24;14.13;;;6.83;;
68989;SDS011;56046;47.270;11.368;2023-03-01T07:47:51;14.85;;;6.00;;
68989;SDS011;56046;47.270;11.368;2023-03-01T07:50:16;15.07;;;6.13;;
68989;SDS011;56046;47.270;11.368;2023-03-01T07:52:44;14.83;;;6.40;;
68989;SDS011;56046;47.270;11.368;2023-03-01T07:55:09;14.60;;;6.68;;
68989;SDS011;56046;47.270;11.368;2023-03-01T07:57:35;14.77;;;6.90;;
68989;SDS011;56046;47.270;11.368;2023-03-01T08:00:00;14.73;;;6.83;;
68989;SDS011;56046;47.270;11.368;2023-03-01T08:02:25;14.33;;;5.93;;
68989;SDS011;56046;47.270;11.368;2023-03-01T08:04:51;11.87;;;6.10;;
68989;SDS011;56046;47.270;11.368;2023-03-01T08:07:16;14.40;;;6.43;;
68989;SDS011;56046;47.270;11.368;2023-03-01T08:09:41;13.57;;;6.97;;
68989;SDS011;56046;47.270;11.368;2023-03-01T08:12:06;15.02;;;6.97;;
68989;SDS011;56046;47.270;11.368;2023-03-01T08:14:32;13.52;;;6.75;;
68989;SDS011;56046;47.270;11.368;2023-03-01T08:16:57;13.97;;;7.00;;
68989;SDS011;56046;47.270;11.368;2023-03-01T08:19:22;13.17;;;6.70;;
68989;SDS011;56046;47.270;11.368;2023-03-01T08:21:48;15.67;;;7.30;;
68989;SDS011;56046;47.270;11.368;2023-03-01T08:24:13;16.33;;;8.00;;
68989;SDS011;56046;47.270;11.368;2023-03-01T08:26:39;13.50;;;6.47;;
68989;SDS011;56046;47.270;11.368;2023-03-01T08:29:04;14.77;;;7.47;;
68989;SDS011;56046;47.270;11.368;2023-03-01T08:31:34;14.97;;;7.10;;
68989;SDS011;56046;47.270;11.368;2023-03-01T08:34:04;16.63;;;6.55;;
68989;SDS011;56046;47.270;11.368;2023-03-01T08:36:31;15.38;;;7.65;;
68989;SDS011;56046;47.270;11.368;2023-03-01T08:38:57;15.43;;;7.78;;
68989;SDS011;56046;47.270;11.368;2023-03-01T08:41:23;14.95;;;7.72;;
68989;SDS011;56046;47.270;11.368;2023-03-01T08:43:48;13.88;;;6.93;;
68989;SDS011;56046;47.270;11.368;2023-03-01T08:46:13;17.70;;;7.40;;
68989;SDS011;56046;47.270;11.368;2023-03-01T08:48:39;11.87;;;6.43;;
68989;SDS011;56046;47.270;11.368;2023-03-01T08:51:09;16.20;;;7.35;;
68989;SDS011;56046;47.270;11.368;2023-03-01T08:53:34;15.57;;;7.40;;
68989;SDS011;56046;47.270;11.368;2023-03-01T08:56:00;13.38;;;6.75;;
68989;SDS011;56046;47.270;11.368;2023-03-01T08:58:27;12.40;;;6.97;;
68989;SDS011;56046;47.270;11.368;2023-03-01T09:00:52;16.50;;;7.15;;
68989;SDS011;56046;47.270;11.368;2023-03-01T09:03:18;14.32;;;7.25;;
68989;SDS011;56046;47.270;11.368;2023-03-01T09:05:43;16.83;;;6.53;;
68989;SDS011;56046;47.270;11.368;2023-03-01T09:08:10;16.37;;;8.27;;
68989;SDS011;56046;47.270;11.368;2023-03-01T09:10:37;18.85;;;8.60;;
68989;SDS011;56046;47.270;11.368;2023-03-01T09:13:02;18.35;;;7.95;;
68989;SDS011;56046;47.270;11.368;2023-03-01T09:15:28;14.43;;;7.53;;
68989;SDS011;56046;47.270;11.368;2023-03-01T09:17:53;15.90;;;7.77;;
68989;SDS011;56046;47.270;11.368;2023-03-01T09:20:18;14.47;;;6.90;;
68989;SDS011;56046;47.270;11.368;2023-03-01T09:22:43;15.00;;;7.13;;
68989;SDS011;56046;47.270;11.368;2023-03-01T09:25:09;13.90;;;7.37;;
68989;SDS011;56046;47.270;11.368;2023-03-01T09:27:34;14.87;;;7.70;;
68989;SDS011;56046;47.270;11.368;2023-03-01T09:30:00;14.67;;;7.27;;
68989;SDS011;56046;47.270;11.368;2023-03-01T09:32:25;15.93;;;7.80;;
68989;SDS011;56046;47.270;11.368;2023-03-01T09:34:50;15.23;;;7.78;;
68989;SDS011;56046;47.270;11.368;2023-03-01T09:37:34;14.23;;;7.03;;
68989;SDS011;56046;47.270;11.368;2023-03-01T09:39:59;16.15;;;7.88;;
68989;SDS011;56046;47.270;11.368;2023-03-01T09:42:24;17.13;;;7.80;;
68989;SDS011;56046;47.270;11.368;2023-03-01T09:44:54;18.08;;;8.05;;
68989;SDS011;56046;47.270;11.368;2023-03-01T09:47:26;17.17;;;7.50;;
68989;SDS011;56046;47.270;11.368;2023-03-01T09:54:49;16.00;;;7.80;;
68989;SDS011;56046;47.270;11.368;2023-03-01T09:57:20;15.98;;;7.97;;
68989;SDS011;56046;47.270;11.368;2023-03-01T10:00:25;16.75;;;8.27;;
68989;SDS011;56046;47.270;11.368;2023-03-01T10:02:44;17.30;;;8.00;;
68989;SDS011;56046;47.270;11.368;2023-03-01T10:05:30;17.77;;;8.10;;
68989;SDS011;56046;47.270;11.368;2023-03-01T10:08:13;16.75;;;9.20;;
68989;SDS011;56046;47.270;11.368;2023-03-01T10:10:44;15.73;;;7.55;;
68989;SDS011;56046;47.270;11.368;2023-03-01T10:13:26;16.55;;;8.35;;
68989;SDS011;56046;47.270;11.368;2023-03-01T10:15:54;17.17;;;8.70;;
68989;SDS011;56046;47.270;11.368;2023-03-01T10:18:27;16.48;;;8.15;;
68989;SDS011;56046;47.270;11.368;2023-03-01T10:21:05;17.48;;;8.32;;
68989;SDS011;56046;47.270;11.368;2023-03-01T10:23:33;16.73;;;7.95;;
68989;SDS011;56046;47.270;11.368;2023-03-01T10:30:53;15.68;;;7.80;;
68989;SDS011;56046;47.270;11.368;2023-03-01T10:33:20;14.52;;;7.85;;
68989;SDS011;56046;47.270;11.368;2023-03-01T10:35:46;14.18;;;7.55;;
68989;SDS011;56046;47.270;11.368;2023-03-01T10:38:13;16.17;;;7.80;;
68989;SDS011;56046;47.270;11.368;2023-03-01T10:43:21;17.75;;;8.90;;
68989;SDS011;56046;47.270;11.368;2023-03-01T10:45:47;20.02;;;9.15;;
68989;SDS011;56046;47.270;11.368;2023-03-01T10:50:42;19.40;;;7.90;;
68989;SDS011;56046;47.270;11.368;2023-03-01T10:53:18;17.13;;;8.02;;
68989;SDS011;56046;47.270;11.368;2023-03-01T10:55:44;16.83;;;8.50;;
68989;SDS011;56046;47.270;11.368;2023-03-01T10:58:17;15.20;;;8.63;;
68989;SDS011;56046;47.270;11.368;2023-03-01T11:00:51;20.25;;;8.50;;
68989;SDS011;56046;47.270;11.368;2023-03-01T11:03:36;16.83;;;7.83;;
68989;SDS011;56046;47.270;11.368;2023-03-01T11:06:18;17.83;;;7.53;;
68989;SDS011;56046;47.270;11.368;2023-03-01T11:08:46;17.88;;;8.40;;
68989;SDS011;56046;47.270;11.368;2023-03-01T11:13:36;17.30;;;8.80;;
68989;SDS011;56046;47.270;11.368;2023-03-01T11:16:07;19.20;;;8.88;;
68989;SDS011;56046;47.270;11.368;2023-03-01T11:18:35;15.13;;;7.27;;
68989;SDS011;56046;47.270;11.368;2023-03-01T11:21:00;16.92;;;8.27;;
68989;SDS011;56046;47.270;11.368;2023-03-01T11:23:27;15.90;;;8.47;;
68989;SDS011;56046;47.270;11.368;2023-03-01T11:25:57;15.85;;;7.97;;
68989;SDS011;56046;47.270;11.368;2023-03-01T11:28:23;17.67;;;9.13;;
68989;SDS011;56046;47.270;11.368;2023-03-01T11:36:04;16.60;;;8.57;;
68989;SDS011;56046;47.270;11.368;2023-03-01T11:38:30;16.48;;;7.78;;
68989;SDS011;56046;47.270;11.368;2023-03-01T11:41:00;17.02;;;8.65;;
68989;SDS011;56046;47.270;11.368;2023-03-01T11:43:29;15.48;;;7.80;;
68989;SDS011;56046;47.270;11.368;2023-03-01T11:48:45;15.53;;;7.80;;
68989;SDS011;56046;47.270;11.368;2023-03-01T11:51:15;15.80;;;7.63;;
68989;SDS011;56046;47.270;11.368;2023-03-01T12:08:58;17.15;;;8.40;;
68989;SDS011;56046;47.270;11.368;2023-03-01T12:14:13;17.83;;;8.03;;
68989;SDS011;56046;47.270;11.368;2023-03-01T12:29:31;22.25;;;9.63;;
68989;SDS011;56046;47.270;11.368;2023-03-01T12:40:25;18.20;;;9.70;;
68989;SDS011;56046;47.270;11.368;2023-03-01T12:42:58;15.70;;;8.07;;
68989;SDS011;56046;47.270;11.368;2023-03-01T12:48:23;20.27;;;9.35;;
68989;SDS011;56046;47.270;11.368;2023-03-01T12:50:53;17.58;;;8.90;;
68989;SDS011;56046;47.270;11.368;2023-03-01T12:53:32;16.45;;;8.98;;
68989;SDS011;56046;47.270;11.368;2023-03-01T12:56:05;19.63;;;8.90;;
68989;SDS011;56046;47.270;11.368;2023-03-01T13:08:49;19.70;;;9.57;;
68989;SDS011;56046;47.270;11.368;2023-03-01T13:11:16;18.33;;;10.25;;
68989;SDS011;56046;47.270;11.368;2023-03-01T13:13:42;19.00;;;10.10;;
68989;SDS011;56046;47.270;11.368;2023-03-01T13:18:56;22.15;;;10.65;;
68989;SDS011;56046;47.270;11.368;2023-03-01T13:21:30;18.80;;;9.27;;
68989;SDS011;56046;47.270;11.368;2023-03-01T13:23:56;20.58;;;9.77;;
68989;SDS011;56046;47.270;11.368;2023-03-01T13:26:21;19.03;;;10.23;;
68989;SDS011;56046;47.270;11.368;2023-03-01T13:33:44;19.25;;;9.48;;
68989;SDS011;56046;47.270;11.368;2023-03-01T13:36:10;17.10;;;8.35;;
68989;SDS011;56046;47.270;11.368;2023-03-01T13:38:41;17.67;;;8.70;;
68989;SDS011;56046;47.270;11.368;2023-03-01T13:41:09;17.67;;;9.45;;
68989;SDS011;56046;47.270;11.368;2023-03-01T13:43:35;18.53;;;8.80;;
68989;SDS011;56046;47.270;11.368;2023-03-01T13:46:01;20.63;;;10.73;;
68989;SDS011;56046;47.270;11.368;2023-03-01T13:48:28;19.10;;;9.52;;
68989;SDS011;56046;47.270;11.368;2023-03-01T13:51:03;20.23;;;10.05;;
68989;SDS011;56046;47.270;11.368;2023-03-01T13:53:33;19.35;;;9.85;;
68989;SDS011;56046;47.270;11.368;2023-03-01T13:56:11;20.87;;;9.73;;
68989;SDS011;56046;47.270;11.368;2023-03-01T13:59:21;18.98;;;9.85;;
68989;SDS011;56046;47.270;11.368;2023-03-01T14:01:35;17.65;;;9.35;;
68989;SDS011;56046;47.270;11.368;2023-03-01T14:04:01;18.02;;;9.38;;
68989;SDS011;56046;47.270;11.368;2023-03-01T14:06:28;15.73;;;8.32;;
68989;SDS011;56046;47.270;11.368;2023-03-01T14:09:28;17.00;;;8.97;;
68989;SDS011;56046;47.270;11.368;2023-03-01T14:14:26;16.20;;;9.57;;
68989;SDS011;56046;47.270;11.368;2023-03-01T14:19:26;22.98;;;7.50;;
68989;SDS011;56046;47.270;11.368;2023-03-01T14:24:38;13.83;;;7.60;;
68989;SDS011;56046;47.270;11.368;2023-03-01T14:27:04;14.02;;;7.15;;
68989;SDS011;56046;47.270;11.368;2023-03-01T14:29:35;13.10;;;7.15;;
68989;SDS011;56046;47.270;11.368;2023-03-01T14:32:18;13.65;;;6.50;;
68989;SDS011;56046;47.270;11.368;2023-03-01T14:34:45;17.73;;;7.43;;
68989;SDS011;56046;47.270;11.368;2023-03-01T14:37:11;14.80;;;7.20;;
68989;SDS011;56046;47.270;11.368;2023-03-01T14:39:42;13.98;;;7.20;;
68989;SDS011;56046;47.270;11.368;2023-03-01T14:42:07;13.17;;;6.70;;
68989;SDS011;56046;47.270;11.368;2023-03-01T14:44:33;15.37;;;7.30;;
68989;SDS011;56046;47.270;11.368;2023-03-01T14:47:02;16.20;;;6.95;;
68989;SDS011;56046;47.270;11.368;2023-03-01T14:49:29;17.02;;;7.25;;
68989;SDS011;56046;47.270;11.368;2023-03-01T14:54:24;14.50;;;6.93;;
68989;SDS011;56046;47.270;11.368;2023-03-01T14:56:51;15.02;;;7.53;;
68989;SDS011;56046;47.270;11.368;2023-03-01T14:59:19;16.87;;;7.73;;
68989;SDS011;56046;47.270;11.368;2023-03-01T15:01:44;17.25;;;8.10;;
68989;SDS011;56046;47.270;11.368;2023-03-01T15:04:12;16.10;;;7.50;;
68989;SDS011;56046;47.270;11.368;2023-03-01T15:06:38;14.00;;;6.97;;
68989;SDS011;56046;47.270;11.368;2023-03-01T15:09:03;13.50;;;6.33;;
68989;SDS011;56046;47.270;11.368;2023-03-01T15:11:29;14.67;;;7.17;;
68989;SDS011;56046;47.270;11.368;2023-03-01T15:13:55;17.13;;;8.15;;
68989;SDS011;56046;47.270;11.368;2023-03-01T15:16:22;12.87;;;6.27;;
68989;SDS011;56046;47.270;11.368;2023-03-01T15:18:48;15.18;;;7.70;;
68989;SDS011;56046;47.270;11.368;2023-03-01T15:21:16;16.92;;;6.93;;
68989;SDS011;56046;47.270;11.368;2023-03-01T15:23:41;13.40;;;6.68;;
68989;SDS011;56046;47.270;11.368;2023-03-01T15:29:10;14.97;;;7.37;;
68989;SDS011;56046;47.270;11.368;2023-03-01T15:31:41;16.20;;;6.65;;
68989;SDS011;56046;47.270;11.368;2023-03-01T15:34:27;12.95;;;6.75;;
68989;SDS011;56046;47.270;11.368;2023-03-01T15:36:53;19.20;;;7.20;;
68989;SDS011;56046;47.270;11.368;2023-03-01T15:39:38;16.77;;;7.65;;
68989;SDS011;56046;47.270;11.368;2023-03-01T15:42:08;18.02;;;8.57;;
68989;SDS011;56046;47.270;11.368;2023-03-01T15:44:35;18.60;;;7.20;;
68989;SDS011;56046;47.270;11.368;2023-03-01T15:47:02;17.77;;;7.40;;
68989;SDS011;56046;47.270;11.368;2023-03-01T15:51:58;16.40;;;7.53;;
68989;SDS011;56046;47.270;11.368;2023-03-01T15:54:24;11.93;;;6.13;;
68989;SDS011;56046;47.270;11.368;2023-03-01T15:56:50;15.55;;;7.03;;
68989;SDS011;56046;47.270;11.368;2023-03-01T15:59:15;16.77;;;7.87;;
68989;SDS011;56046;47.270;11.368;2023-03-01T16:01:41;17.73;;;8.52;;
68989;SDS011;56046;47.270;11.368;2023-03-01T16:04:08;16.93;;;7.20;;
68989;SDS011;56046;47.270;11.368;2023-03-01T16:06:33;16.73;;;7.47;;
68989;SDS011;56046;47.270;11.368;2023-03-01T16:09:00;17.08;;;8.52;;
68989;SDS011;56046;47.270;11.368;2023-03-01T16:11:27;15.27;;;7.60;;